Share

Lincoln, KS

Center Township (KKSBELOI1) Elev 1504 ft | 39.33 °N, 98.15 °W | Change Station

Current weather conditions updated 53 seconds ago

Scattered Clouds
Scattered Clouds
68.0 °F
Feels Like 68.0 °F
N
15.0
Wind Variable Wind from SE
Gusts 18.0 mph
Sunrise 6:48 AM
Sunset 8:14 PM
Moon Waning Gibbous

Tomorrow is forecast to be nearly the same temperature as today.

Pressure 29.98 in
Visibility 10.0 miles
Clouds Scattered Clouds 9000 ft
Dew Point 61 °F
Humidity 78%
Rainfall 0.11 in
Snow Depth Not available.
UV 4 out of 16
Pollen 8.00 out of 12
Air Quality Not available.
Flu Activity No Activity
METAR KSLN 202153Z 15012KT 10SM SCT090 21/13 A2998 RMK AO2 RAE39 SLPNO P0000 T02110128 $

More Conditions Fewer Conditions

Pressure 29.98 in
Visibility 10.0 miles
Clouds Scattered Clouds 9000 ft
Dew Point 61 °F
Humidity 78%
Rainfall 0.11 in
Snow Depth Not available.
UV 4 out of 16
Pollen 8.00 out of 12
Air Quality Not available.
Flu Activity No Activity
METAR KSLN 202153Z 15012KT 10SM SCT090 21/13 A2998 RMK AO2 RAE39 SLPNO P0000 T02110128 $

More Conditions Fewer Conditions

10-Day Weather Forecast

Almanac

Astronomy

Apr. 20, 2014 Rise Set
Actual Time 6:48 AM CDT 8:14 PM CDT
Civil Twilight 6:20 AM CDT 8:42 PM CDT
Nautical Twilight 5:47 AM CDT 9:16 PM CDT
Astronomical Twilight 5:11 AM CDT 9:51 PM CDT
Moon 12:54 AM CDT 11:11 AM CDT
Length of Visible Light 14h 21m
Length of Day
13h 26m
Tomorrow will be 2m 21s longer.
Waning Gibbous, 66% of the Moon is Illuminated
Today
Waning Gibbous
Apr 22
Last Quarter
Apr 29
New
May 6
First Quarter
May 14
Full

Today's Extremes

State Highs State Lows

Community

  • spring skiing mount Baker WA
    spring skiing mount Baker WA
  • Morning Sun
    Morning Sun
  • after rain
    after rain
  • Columbine
    Columbine
  • Easter Sunrise
    Easter Sunrise

WunderPhotos

Upload Photos

1,703,414 photos uploaded!

WunderBlogs® & News

Nearby

Snow Depth

Station Depth Elevation
No new snow has been reported.

Coastal Water Temperatures

Place Temperature
No Stations Reporting

Earthquake Activity

City Distance Mag. Time & Date
No recent earthquake activity has been reported nearby.
Minimum magnitude displayed is 2.5.

Nearby Weather Stations

Station Location Temp. Heat Index Dew Point Humidity Wind Precip. Elev Updated Type
Center Township, BELOIT, KS 68.0 °F - 61 °F 78% SE  at  15.0 mph 0.00 in / hr 1504 ft 5:26 PM CDT Normal
MesoWest WILSON , Wilson, KS 68 °F - - - North  at  - 0.00 in / hr 1687 ft 2:50 PM CDT MADIS
MesoWest TRCOTA , Kanopolis, KS 73 °F 71 °F - - North  at  - 0.00 in / hr 1580 ft 2:10 PM CDT MADIS
Wilson, Wilson, KS 72.8 °F 77 °F 55 °F 54% SSE  at  21.0 mph 0.00 in / hr 1689 ft 5:26 PM CDT Rapid Fire

Show More Stations Show Fewer Stations

What do you think?

We're not finished. Please let us know what you like, what you don't like, and what you are still missing.